TimeEDT,TemperatureF,Dew PointF,Humidity,Sea Level PressureIn,VisibilityMPH,Wind Direction,Wind SpeedMPH,Gust SpeedMPH,PrecipitationIn,Events,Conditions,WindDirDegrees,DateUTC
12:54 AM,28.9,14.0,54,29.66,10.0,West,9.2,18.4,N/A,,Clear,280,2013-03-16 04:54:00
1:54 AM,28.0,10.9,49,29.69,10.0,WNW,11.5,18.4,N/A,,Clear,300,2013-03-16 05:54:00
2:54 AM,26.1,10.9,53,29.70,10.0,WNW,6.9,-,N/A,,Mostly Cloudy,300,2013-03-16 06:54:00
3:54 AM,23.0,10.9,60,29.70,10.0,Calm,Calm,-,N/A,,Partly Cloudy,0,2013-03-16 07:54:00
4:54 AM,23.0,12.9,65,29.73,10.0,Calm,Calm,-,N/A,,Overcast,0,2013-03-16 08:54:00
5:54 AM,24.1,16.0,71,29.75,10.0,NNW,3.5,-,0.00,,Overcast,330,2013-03-16 09:54:00
6:44 AM,21.2,15.8,80,29.76,10.0,Calm,Calm,-,0.00,,Overcast,0,2013-03-16 10:44:00
6:51 AM,21.2,14.0,74,29.76,10.0,NE,3.5,-,0.00,,Overcast,40,2013-03-16 10:51:00
6:54 AM,21.9,15.1,75,29.78,10.0,ENE,3.5,-,0.00,,Overcast,60,2013-03-16 10:54:00
7:46 AM,26.6,12.2,55,29.78,10.0,North,8.1,-,0.00,,Overcast,350,2013-03-16 11:46:00
7:54 AM,26.1,12.9,58,29.80,10.0,NW,4.6,-,0.00,,Overcast,310,2013-03-16 11:54:00
8:04 AM,24.8,12.2,59,29.78,1.8,NW,5.8,-,0.00,Snow,Light Snow,320,2013-03-16 12:04:00
8:11 AM,24.8,14.0,64,29.78,3.0,NNW,4.6,-,0.00,Snow,Light Snow,340,2013-03-16 12:11:00
8:22 AM,24.8,14.0,64,29.79,9.0,North,3.5,-,0.00,,Overcast,350,2013-03-16 12:22:00
8:54 AM,26.1,14.0,60,29.82,10.0,Calm,Calm,-,0.00,,Overcast,0,2013-03-16 12:54:00
9:05 AM,26.6,14.0,59,29.79,10.0,NNW,3.5,-,0.00,,Overcast,330,2013-03-16 13:05:00
9:54 AM,28.0,14.0,56,29.82,10.0,Calm,Calm,-,0.00,,Mostly Cloudy,0,2013-03-16 13:54:00
10:54 AM,28.0,8.1,43,29.81,10.0,NW,3.5,-,0.00,,Clear,320,2013-03-16 14:54:00
11:54 AM,30.0,7.0,38,29.80,10.0,Variable,4.6,-,0.00,,Clear,0,2013-03-16 15:54:00
12:54 PM,30.9,7.0,37,29.79,10.0,Variable,4.6,-,0.00,,Clear,0,2013-03-16 16:54:00
1:54 PM,32.0,8.1,37,29.78,10.0,Variable,5.8,16.1,N/A,,Clear,0,2013-03-16 17:54:00
2:54 PM,32.0,7.0,35,29.77,10.0,Variable,5.8,-,0.00,,Partly Cloudy,0,2013-03-16 18:54:00
3:54 PM,30.9,8.1,38,29.79,10.0,Variable,6.9,-,0.00,,Scattered Clouds,0,2013-03-16 19:54:00
4:54 PM,30.9,7.0,37,29.78,10.0,NW,5.8,-,0.00,,Partly Cloudy,310,2013-03-16 20:54:00
5:54 PM,30.0,8.1,40,29.78,10.0,West,4.6,-,N/A,,Overcast,280,2013-03-16 21:54:00
6:54 PM,28.0,8.1,43,29.81,10.0,WNW,4.6,-,N/A,,Scattered Clouds,290,2013-03-16 22:54:00
7:54 PM,28.0,8.1,43,29.82,10.0,NW,3.5,-,N/A,,Scattered Clouds,320,2013-03-16 23:54:00
8:54 PM,28.0,8.1,43,29.84,10.0,NW,5.8,-,N/A,,Overcast,320,2013-03-17 00:54:00
9:54 PM,27.0,9.0,47,29.86,10.0,Variable,4.6,-,N/A,,Overcast,0,2013-03-17 01:54:00
10:54 PM,25.0,9.0,51,29.87,10.0,Calm,Calm,-,N/A,,Partly Cloudy,0,2013-03-17 02:54:00
11:54 PM,25.0,8.1,49,29.89,10.0,WNW,6.9,-,N/A,,Clear,300,2013-03-17 03:54:00